createdAt,value
2018-11-11T00:01:07.438Z,28.07
2018-11-11T00:03:35.652Z,30.00
2018-11-11T00:06:03.870Z,28.33
2018-11-11T00:08:32.092Z,26.67
2018-11-11T00:11:00.328Z,30.13
2018-11-11T00:13:28.554Z,27.77
2018-11-11T00:15:56.798Z,29.17
2018-11-11T00:18:25.001Z,30.83
2018-11-11T00:20:53.214Z,30.53
2018-11-11T00:23:21.419Z,31.50
2018-11-11T00:25:49.627Z,28.73
2018-11-11T00:28:17.833Z,30.17
2018-11-11T00:30:46.052Z,35.13
2018-11-11T00:33:14.246Z,34.13
2018-11-11T00:35:42.459Z,33.50
2018-11-11T00:38:10.663Z,34.53
2018-11-11T00:40:38.909Z,34.03
2018-11-11T00:43:07.168Z,32.73
2018-11-11T00:45:35.395Z,30.33
2018-11-11T00:48:03.611Z,28.33
2018-11-11T00:50:31.819Z,27.47
2018-11-11T00:53:00.060Z,29.47
2018-11-11T00:55:31.234Z,29.27
2018-11-11T00:57:59.496Z,30.43
2018-11-11T01:00:27.699Z,30.87
2018-11-11T01:02:55.915Z,33.10
2018-11-11T01:05:24.195Z,38.43
2018-11-11T01:07:52.402Z,37.53
2018-11-11T01:10:20.697Z,36.93
2018-11-11T01:12:48.887Z,35.40
2018-11-11T01:15:17.630Z,35.37
2018-11-11T01:17:45.826Z,34.47
2018-11-11T01:20:15.296Z,35.33
2018-11-11T01:22:43.950Z,37.40
2018-11-11T01:25:14.291Z,36.63
2018-11-11T01:27:42.543Z,35.67
2018-11-11T01:30:10.759Z,35.90
2018-11-11T01:32:39.158Z,32.93
2018-11-11T01:35:09.206Z,32.97
2018-11-11T01:37:37.471Z,36.23
2018-11-11T01:40:06.183Z,33.67
2018-11-11T01:42:34.431Z,37.53
2018-11-11T01:45:02.622Z,39.37
2018-11-11T01:47:30.856Z,36.13
2018-11-11T01:49:59.055Z,35.30
2018-11-11T01:52:27.380Z,37.83
2018-11-11T01:54:55.610Z,35.87
2018-11-11T01:57:23.847Z,36.17
2018-11-11T01:59:52.048Z,32.87
2018-11-11T02:02:20.276Z,33.40
2018-11-11T02:04:48.479Z,36.17
2018-11-11T02:07:16.728Z,33.77
2018-11-11T02:09:45.009Z,35.50
2018-11-11T02:12:13.174Z,36.10
2018-11-11T02:14:41.362Z,34.03
2018-11-11T02:17:09.579Z,36.13
2018-11-11T02:19:37.787Z,32.83
2018-11-11T02:22:06.054Z,31.30
2018-11-11T02:24:34.247Z,33.23
2018-11-11T02:27:02.447Z,33.47
2018-11-11T02:29:30.668Z,32.57
2018-11-11T02:31:58.931Z,32.50
2018-11-11T02:34:27.153Z,31.17
2018-11-11T02:36:55.407Z,33.80
2018-11-11T02:39:23.600Z,34.47
2018-11-11T02:41:51.832Z,37.67
2018-11-11T02:44:20.035Z,32.50
2018-11-11T02:46:48.292Z,34.13
2018-11-11T02:49:16.537Z,34.27
2018-11-11T02:51:44.795Z,37.00
2018-11-11T02:54:13.030Z,34.33
2018-11-11T02:56:41.280Z,34.13
2018-11-11T02:59:09.509Z,33.90
2018-11-11T03:01:37.744Z,34.43
2018-11-11T03:04:06.031Z,35.57
2018-11-11T03:06:34.226Z,33.93
2018-11-11T03:09:02.438Z,33.43
2018-11-11T03:11:30.659Z,31.40
2018-11-11T03:13:58.853Z,32.43
2018-11-11T03:16:27.120Z,32.63
2018-11-11T03:18:55.352Z,35.07
2018-11-11T03:21:23.551Z,33.30
2018-11-11T03:23:51.756Z,31.93
2018-11-11T03:26:19.962Z,32.87
2018-11-11T03:28:48.172Z,35.47
2018-11-11T03:31:16.432Z,33.27
2018-11-11T03:33:44.641Z,33.23
2018-11-11T03:36:12.845Z,35.60
2018-11-11T03:38:41.117Z,36.13
2018-11-11T03:41:09.372Z,34.00
2018-11-11T03:43:37.616Z,32.47
2018-11-11T03:46:05.827Z,35.87
2018-11-11T03:48:34.039Z,33.93
2018-11-11T03:51:02.297Z,34.87
2018-11-11T03:53:30.535Z,34.67
2018-11-11T03:55:58.748Z,34.27
2018-11-11T03:58:27.025Z,36.93
2018-11-11T04:00:55.278Z,33.60
2018-11-11T04:03:23.507Z,34.67
2018-11-11T04:05:51.753Z,39.33
2018-11-11T04:08:19.985Z,39.37
2018-11-11T04:10:48.193Z,38.30
2018-11-11T04:13:16.435Z,37.47
2018-11-11T04:15:45.259Z,36.60
2018-11-11T04:18:13.541Z,42.30
2018-11-11T04:20:41.840Z,42.87
2018-11-11T04:23:10.060Z,41.47
2018-11-11T04:25:38.311Z,37.47
2018-11-11T04:28:06.547Z,38.37
2018-11-11T04:30:34.769Z,39.27
2018-11-11T04:33:02.983Z,41.73
2018-11-11T04:35:31.194Z,38.97
2018-11-11T04:37:59.413Z,41.00
2018-11-11T04:40:27.671Z,38.50
2018-11-11T04:42:55.925Z,39.20
2018-11-11T04:45:24.140Z,39.07
2018-11-11T04:47:52.359Z,37.47
2018-11-11T04:50:20.564Z,36.63
2018-11-11T04:52:48.796Z,37.53
2018-11-11T04:55:16.991Z,38.80
2018-11-11T04:57:45.215Z,38.83
2018-11-11T05:00:14.376Z,39.30
2018-11-11T05:02:42.890Z,38.77
2018-11-11T05:05:12.084Z,39.20
2018-11-11T05:07:40.633Z,36.93
2018-11-11T05:10:08.973Z,36.63
2018-11-11T05:12:37.356Z,36.73
2018-11-11T05:15:06.779Z,37.27
2018-11-11T05:17:34.974Z,38.53
2018-11-11T05:20:03.179Z,38.90
2018-11-11T05:22:31.389Z,40.07
2018-11-11T05:24:59.637Z,38.10
2018-11-11T05:27:27.839Z,38.43
2018-11-11T05:29:56.136Z,36.57
2018-11-11T05:32:24.344Z,36.40
2018-11-11T05:34:52.594Z,38.73
2018-11-11T05:37:20.801Z,37.73
2018-11-11T05:39:49.023Z,35.87
2018-11-11T05:42:17.247Z,36.07
2018-11-11T05:44:45.469Z,36.27
2018-11-11T05:47:13.718Z,37.17
2018-11-11T05:49:42.353Z,36.30
2018-11-11T05:52:10.581Z,35.30
2018-11-11T05:54:38.797Z,36.50
2018-11-11T05:57:06.991Z,38.13
2018-11-11T05:59:35.217Z,37.30
2018-11-11T06:02:03.448Z,34.43
2018-11-11T06:04:31.682Z,32.90
2018-11-11T06:06:59.897Z,34.47
2018-11-11T06:09:28.169Z,34.03
2018-11-11T06:11:56.372Z,33.87
2018-11-11T06:14:24.587Z,33.63
2018-11-11T06:16:52.779Z,34.53
2018-11-11T06:19:21.032Z,35.50
2018-11-11T06:21:49.239Z,36.97
2018-11-11T06:24:17.491Z,35.37
2018-11-11T06:26:45.699Z,36.53
2018-11-11T06:29:13.891Z,35.53
2018-11-11T06:31:42.123Z,33.50
2018-11-11T06:34:10.390Z,34.20
2018-11-11T06:36:38.594Z,33.27
2018-11-11T06:39:08.348Z,37.73
2018-11-11T06:41:36.579Z,34.63
2018-11-11T06:44:04.791Z,32.27
2018-11-11T06:46:33.019Z,31.17
2018-11-11T06:49:01.214Z,32.00
2018-11-11T06:51:29.439Z,37.47
2018-11-11T06:53:57.752Z,41.47
2018-11-11T06:56:26.057Z,40.17
2018-11-11T06:58:54.277Z,39.73
2018-11-11T07:01:22.550Z,36.77
2018-11-11T07:03:56.194Z,37.33
2018-11-11T07:06:24.779Z,34.70
2018-11-11T07:08:52.988Z,37.43
2018-11-11T07:11:21.220Z,35.90
2018-11-11T07:13:49.564Z,34.80
2018-11-11T07:16:17.784Z,36.17
2018-11-11T07:18:46.723Z,37.20
2018-11-11T07:21:15.361Z,35.50
2018-11-11T07:23:43.799Z,37.57
2018-11-11T07:26:11.927Z,35.90
2018-11-11T07:28:40.145Z,36.27
2018-11-11T07:31:08.836Z,35.43
2018-11-11T07:33:37.084Z,34.17
2018-11-11T07:36:06.160Z,34.33
2018-11-11T07:38:34.387Z,33.27
2018-11-11T07:41:02.616Z,34.03
2018-11-11T07:43:30.829Z,34.23
2018-11-11T07:45:59.048Z,35.40
2018-11-11T07:48:27.255Z,34.63
2018-11-11T07:50:55.512Z,33.50
2018-11-11T07:53:23.715Z,32.50
2018-11-11T07:55:51.987Z,31.10
2018-11-11T07:58:20.246Z,32.03
2018-11-11T08:00:48.539Z,32.53
2018-11-11T08:03:16.789Z,32.23
2018-11-11T08:05:45.029Z,31.80
2018-11-11T08:08:13.245Z,33.27
2018-11-11T08:10:52.858Z,32.37
2018-11-11T08:13:21.056Z,31.50
2018-11-11T08:15:49.284Z,31.60
2018-11-11T08:18:17.499Z,31.40
2018-11-11T08:20:45.724Z,32.20
2018-11-11T08:23:13.925Z,31.93
2018-11-11T08:25:42.166Z,30.83
2018-11-11T08:28:10.362Z,31.33
2018-11-11T08:30:38.564Z,31.83
2018-11-11T08:33:07.025Z,30.87
2018-11-11T08:35:35.251Z,30.77
2018-11-11T08:38:03.569Z,42.37
2018-11-11T08:40:31.908Z,32.03
2018-11-11T08:43:00.079Z,31.33
2018-11-11T08:45:28.287Z,30.90
2018-11-11T08:47:56.517Z,32.80
2018-11-11T08:50:24.784Z,33.50
2018-11-11T08:52:53.005Z,30.17
2018-11-11T08:55:21.203Z,29.93
2018-11-11T08:57:49.456Z,30.73
2018-11-11T09:00:17.673Z,32.33
2018-11-11T09:02:45.979Z,102.03
2018-11-11T09:05:14.219Z,37.83
2018-11-11T09:07:42.468Z,30.43
2018-11-11T09:10:11.888Z,31.07
2018-11-11T09:12:40.129Z,31.47
2018-11-11T09:15:10.743Z,30.80
2018-11-11T09:17:39.333Z,31.57
2018-11-11T09:20:07.736Z,32.47
2018-11-11T09:22:36.091Z,33.53
2018-11-11T09:25:04.699Z,36.27
2018-11-11T09:27:32.997Z,32.03
2018-11-11T09:30:01.202Z,32.77
2018-11-11T09:32:29.539Z,33.47
2018-11-11T09:34:57.803Z,31.70
2018-11-11T09:37:26.128Z,33.13
2018-11-11T09:39:54.346Z,33.60
2018-11-11T09:42:22.653Z,33.70
2018-11-11T09:44:50.839Z,35.90
2018-11-11T09:47:19.057Z,33.27
2018-11-11T09:49:47.289Z,33.20
2018-11-11T09:52:15.517Z,32.97
2018-11-11T09:54:43.744Z,32.97
2018-11-11T09:57:11.969Z,31.00
2018-11-11T09:59:40.208Z,31.97
2018-11-11T10:02:08.440Z,33.13
2018-11-11T10:04:54.646Z,33.00
2018-11-11T10:07:33.624Z,30.90
2018-11-11T10:10:05.497Z,30.07
2018-11-11T10:12:41.020Z,30.90
2018-11-11T10:15:13.880Z,31.20
2018-11-11T10:17:49.375Z,32.60
2018-11-11T10:20:23.155Z,28.37
2018-11-11T10:22:59.395Z,28.47
2018-11-11T10:25:31.943Z,25.80
2018-11-11T10:28:15.379Z,37.63
2018-11-11T10:31:17.892Z,29.27
2018-11-11T10:33:51.094Z,27.23
2018-11-11T10:36:24.748Z,31.57
2018-11-11T10:38:56.960Z,26.80
2018-11-11T10:41:29.463Z,26.53
2018-11-11T10:44:00.791Z,24.60
2018-11-11T10:46:32.904Z,26.13
2018-11-11T10:49:03.421Z,26.20
2018-11-11T10:51:31.733Z,25.53
2018-11-11T10:53:59.988Z,25.23
2018-11-11T10:56:29.068Z,26.40
2018-11-11T10:58:57.310Z,25.37
2018-11-11T11:01:30.967Z,25.67
2018-11-11T11:03:59.203Z,24.43
2018-11-11T11:06:32.914Z,23.67
2018-11-11T11:09:06.657Z,23.67
2018-11-11T11:11:34.872Z,23.57
2018-11-11T11:14:03.193Z,24.10
2018-11-11T11:16:31.379Z,23.50
2018-11-11T11:18:59.614Z,22.10
2018-11-11T11:21:27.811Z,22.43
2018-11-11T11:23:56.096Z,23.20
2018-11-11T11:26:24.315Z,21.73
2018-11-11T11:28:52.523Z,23.23
2018-11-11T11:31:20.772Z,20.80
2018-11-11T11:33:48.995Z,21.60
2018-11-11T11:36:17.283Z,22.17
2018-11-11T11:38:45.521Z,21.27
2018-11-11T11:41:13.753Z,20.80
2018-11-11T11:43:42.003Z,21.27
2018-11-11T11:46:10.223Z,21.20
2018-11-11T11:48:38.466Z,21.93
2018-11-11T11:51:06.687Z,21.10
2018-11-11T11:53:34.942Z,20.87
2018-11-11T11:56:03.179Z,21.23
2018-11-11T11:58:31.956Z,21.23
2018-11-11T12:01:00.964Z,19.53
2018-11-11T12:03:29.175Z,19.70
2018-11-11T12:05:57.396Z,20.60
2018-11-11T12:08:25.703Z,20.97
2018-11-11T12:10:53.946Z,22.73
2018-11-11T12:13:22.183Z,20.20
2018-11-11T12:15:50.416Z,20.33
2018-11-11T12:18:18.705Z,21.20
2018-11-11T12:20:46.931Z,21.13
2018-11-11T12:23:15.192Z,21.80
2018-11-11T12:25:44.412Z,21.87
2018-11-11T12:28:12.621Z,20.60
2018-11-11T12:30:40.884Z,20.20
2018-11-11T12:33:09.167Z,20.37
2018-11-11T12:35:37.360Z,21.17
2018-11-11T12:38:05.665Z,22.10
2018-11-11T12:40:33.887Z,20.40
2018-11-11T12:43:02.150Z,19.87
2018-11-11T12:45:30.967Z,19.30
2018-11-11T12:47:59.191Z,20.53
2018-11-11T12:50:27.515Z,19.13
2018-11-11T12:52:55.678Z,20.20
2018-11-11T12:55:23.959Z,20.30
2018-11-11T12:57:52.116Z,18.83
2018-11-11T13:00:20.331Z,18.20
2018-11-11T13:02:48.548Z,17.00
2018-11-11T13:05:16.781Z,16.47
2018-11-11T13:07:44.988Z,16.00
2018-11-11T13:10:13.915Z,15.83
2018-11-11T13:12:42.513Z,15.70
2018-11-11T13:15:12.003Z,15.27
2018-11-11T13:17:40.690Z,15.20
2018-11-11T13:20:11.128Z,15.77
2018-11-11T13:22:39.409Z,15.63
2018-11-11T13:25:08.395Z,14.53
2018-11-11T13:27:36.871Z,15.43
2018-11-11T13:30:06.036Z,14.60
2018-11-11T13:32:34.291Z,14.70
2018-11-11T13:35:02.502Z,13.87
2018-11-11T13:37:30.875Z,13.97
2018-11-11T13:39:59.087Z,13.33
2018-11-11T13:42:27.455Z,13.10
2018-11-11T13:44:55.773Z,12.50
2018-11-11T13:47:24.008Z,12.00
2018-11-11T13:49:52.231Z,11.37
2018-11-11T13:52:20.500Z,11.87
2018-11-11T13:54:48.703Z,11.53
2018-11-11T13:57:16.927Z,11.97
2018-11-11T13:59:45.443Z,12.07
2018-11-11T14:02:13.659Z,11.47
2018-11-11T14:04:41.879Z,10.97
2018-11-11T14:07:10.104Z,10.33
2018-11-11T14:09:38.320Z,10.10
2018-11-11T14:12:06.599Z,9.70
2018-11-11T14:14:34.799Z,8.87
2018-11-11T14:17:03.016Z,8.80
2018-11-11T14:19:31.344Z,8.87
2018-11-11T14:21:59.540Z,9.00
2018-11-11T14:24:27.743Z,8.93
2018-11-11T14:26:56.060Z,9.00
2018-11-11T14:29:24.248Z,9.17
2018-11-11T14:31:52.486Z,9.80
2018-11-11T14:34:20.689Z,9.70
2018-11-11T14:36:48.914Z,10.33
2018-11-11T14:39:17.124Z,10.83
2018-11-11T14:41:45.359Z,9.77
2018-11-11T14:44:13.612Z,10.13
2018-11-11T14:46:42.079Z,9.73
2018-11-11T14:49:10.659Z,10.50
2018-11-11T14:51:38.873Z,10.07
2018-11-11T14:54:07.079Z,10.67
2018-11-11T14:56:35.364Z,9.80
2018-11-11T14:59:03.569Z,10.93
2018-11-11T15:01:31.853Z,10.00
2018-11-11T15:04:00.120Z,10.37
2018-11-11T15:06:28.621Z,11.07
2018-11-11T15:08:56.830Z,11.23
2018-11-11T15:11:25.076Z,11.37
2018-11-11T15:13:53.362Z,11.53
2018-11-11T15:16:21.547Z,10.30
2018-11-11T15:18:49.809Z,11.80
2018-11-11T15:21:18.049Z,11.80
2018-11-11T15:23:46.271Z,11.90
2018-11-11T15:26:14.495Z,11.67
2018-11-11T15:28:42.728Z,13.83
2018-11-11T15:31:11.195Z,12.57
2018-11-11T15:33:39.203Z,12.20
2018-11-11T15:36:07.424Z,18.33
2018-11-11T15:38:35.639Z,12.30
2018-11-11T15:41:03.884Z,13.50
2018-11-11T15:43:32.140Z,13.13
2018-11-11T15:46:00.344Z,13.63
2018-11-11T15:48:28.592Z,12.40
2018-11-11T15:50:56.820Z,12.07
2018-11-11T15:53:25.240Z,12.70
2018-11-11T15:55:53.447Z,13.03
2018-11-11T15:58:21.723Z,14.03
2018-11-11T16:00:49.971Z,18.20
2018-11-11T16:03:18.195Z,12.40
2018-11-11T16:05:46.412Z,12.27
2018-11-11T16:08:14.638Z,12.20
2018-11-11T16:10:42.899Z,12.27
2018-11-11T16:13:11.115Z,11.40
2018-11-11T16:15:40.478Z,11.97
2018-11-11T16:18:10.195Z,12.80
2018-11-11T16:20:38.546Z,12.10
2018-11-11T16:23:07.311Z,12.47
2018-11-11T16:25:35.716Z,11.87
2018-11-11T16:28:03.956Z,13.93
2018-11-11T16:30:33.492Z,17.70
2018-11-11T16:33:01.993Z,21.03
2018-11-11T16:35:30.807Z,22.37
2018-11-11T16:37:59.667Z,21.07
2018-11-11T16:40:30.127Z,21.93
2018-11-11T16:42:58.536Z,20.43
2018-11-11T16:45:27.948Z,16.93
2018-11-11T16:47:56.341Z,13.13
2018-11-11T16:50:27.335Z,12.13
2018-11-11T16:52:56.738Z,13.77
2018-11-11T16:55:26.223Z,14.77
2018-11-11T16:57:54.388Z,15.43
2018-11-11T17:00:24.499Z,14.23
2018-11-11T17:02:53.063Z,12.97
2018-11-11T17:05:25.416Z,13.30
2018-11-11T17:07:54.017Z,17.47
2018-11-11T17:10:24.519Z,17.50
2018-11-11T17:12:53.679Z,16.73
2018-11-11T17:15:23.440Z,17.07
2018-11-11T17:17:51.717Z,12.63
2018-11-11T17:20:20.984Z,11.73
2018-11-11T17:22:50.217Z,11.13
2018-11-11T17:25:19.232Z,10.70
2018-11-11T17:27:47.738Z,10.93
2018-11-11T17:30:18.952Z,10.70
2018-11-11T17:32:48.240Z,10.80
2018-11-11T17:35:16.635Z,9.60
2018-11-11T17:37:44.896Z,10.30
2018-11-11T17:40:15.038Z,9.47
2018-11-11T17:42:44.395Z,10.07
2018-11-11T17:45:13.170Z,10.23
2018-11-11T17:47:41.833Z,9.50
2018-11-11T17:50:12.115Z,9.53
2018-11-11T17:52:40.649Z,8.73
2018-11-11T17:55:09.608Z,9.33
2018-11-11T17:57:37.784Z,8.53
2018-11-11T18:00:07.012Z,8.80
2018-11-11T18:02:35.214Z,8.57
2018-11-11T18:05:03.673Z,8.50
2018-11-11T18:07:31.888Z,8.67
2018-11-11T18:10:00.152Z,8.20
2018-11-11T18:12:28.369Z,8.20
2018-11-11T18:14:56.640Z,8.20
2018-11-11T18:17:24.923Z,7.97
2018-11-11T18:19:53.164Z,7.93
2018-11-11T18:22:21.380Z,8.47
2018-11-11T18:24:49.645Z,7.87
2018-11-11T18:27:17.958Z,8.03
2018-11-11T18:29:46.150Z,8.07
2018-11-11T18:32:14.353Z,7.80
2018-11-11T18:34:42.633Z,8.10
2018-11-11T18:37:10.870Z,7.50
2018-11-11T18:39:39.090Z,8.70
2018-11-11T18:42:07.315Z,9.40
2018-11-11T18:44:35.632Z,9.97
2018-11-11T18:47:03.907Z,9.57
2018-11-11T18:49:32.145Z,9.53
2018-11-11T18:52:00.351Z,9.80
2018-11-11T18:54:28.583Z,10.10
2018-11-11T18:56:56.791Z,10.30
2018-11-11T18:59:25.056Z,9.23
2018-11-11T19:01:53.267Z,9.40
2018-11-11T19:04:21.511Z,9.83
2018-11-11T19:06:49.732Z,9.50
2018-11-11T19:09:18.014Z,9.43
2018-11-11T19:11:46.257Z,9.93
2018-11-11T19:14:14.478Z,9.87
2018-11-11T19:16:42.785Z,9.00
2018-11-11T19:19:11.063Z,8.83
2018-11-11T19:21:39.507Z,11.07
2018-11-11T19:24:07.717Z,11.90
2018-11-11T19:26:35.950Z,10.73
2018-11-11T19:29:04.162Z,10.80
2018-11-11T19:31:32.402Z,10.23
2018-11-11T19:34:00.600Z,11.33
2018-11-11T19:36:28.815Z,10.50
2018-11-11T19:38:57.025Z,11.07
2018-11-11T19:41:25.365Z,10.67
2018-11-11T19:43:53.544Z,11.30
2018-11-11T19:46:21.751Z,10.50
2018-11-11T19:48:50.314Z,10.93
2018-11-11T19:51:18.535Z,11.50
2018-11-11T19:53:46.749Z,10.23
2018-11-11T19:56:15.201Z,11.00
2018-11-11T19:58:43.425Z,10.17
2018-11-11T20:01:11.651Z,10.97
2018-11-11T20:03:39.865Z,11.83
2018-11-11T20:06:08.101Z,10.60
2018-11-11T20:08:36.345Z,10.90
2018-11-11T20:11:04.856Z,10.83
2018-11-11T20:13:33.066Z,10.20
2018-11-11T20:16:01.289Z,11.30
2018-11-11T20:18:29.522Z,11.07
2018-11-11T20:20:57.747Z,11.00
2018-11-11T20:23:25.971Z,11.50
2018-11-11T20:25:54.241Z,10.77
2018-11-11T20:28:22.492Z,11.33
2018-11-11T20:30:50.732Z,11.17
2018-11-11T20:33:18.949Z,10.70
2018-11-11T20:35:47.172Z,11.83
2018-11-11T20:38:15.389Z,11.47
2018-11-11T20:40:43.603Z,10.57
2018-11-11T20:43:11.886Z,12.73
2018-11-11T20:45:40.137Z,12.13
2018-11-11T20:48:08.344Z,11.33
2018-11-11T20:50:36.567Z,11.60
2018-11-11T20:53:05.907Z,12.50
2018-11-11T20:55:34.235Z,11.10
2018-11-11T20:58:02.717Z,11.87
2018-11-11T21:00:34.352Z,13.57
2018-11-11T21:03:02.560Z,12.03
2018-11-11T21:05:30.968Z,12.47
2018-11-11T21:07:59.251Z,12.83
2018-11-11T21:10:28.420Z,12.70
2018-11-11T21:12:56.910Z,13.30
2018-11-11T21:15:26.369Z,12.53
2018-11-11T21:17:54.623Z,12.10
2018-11-11T21:20:24.328Z,12.60
2018-11-11T21:22:52.575Z,11.73
2018-11-11T21:25:20.856Z,12.53
2018-11-11T21:27:49.996Z,13.63
2018-11-11T21:30:20.326Z,13.13
2018-11-11T21:32:48.726Z,12.47
2018-11-11T21:35:16.934Z,13.47
2018-11-11T21:37:45.322Z,12.87
2018-11-11T21:40:16.469Z,13.03
2018-11-11T21:42:45.601Z,13.80
2018-11-11T21:45:15.121Z,13.53
2018-11-11T21:47:43.766Z,13.70
2018-11-11T21:50:27.914Z,13.17
2018-11-11T21:53:02.105Z,12.30
2018-11-11T21:55:30.248Z,13.63
2018-11-11T21:57:58.522Z,14.27
2018-11-11T22:00:26.745Z,12.97
2018-11-11T22:02:55.004Z,12.63
2018-11-11T22:05:23.214Z,13.23
2018-11-11T22:07:51.461Z,12.17
2018-11-11T22:10:19.670Z,13.63
2018-11-11T22:12:47.895Z,13.83
2018-11-11T22:15:16.116Z,13.67
2018-11-11T22:17:44.343Z,13.10
2018-11-11T22:20:12.547Z,12.90
2018-11-11T22:22:41.215Z,13.67
2018-11-11T22:25:09.431Z,11.90
2018-11-11T22:27:37.712Z,13.73
2018-11-11T22:30:08.336Z,12.70
2018-11-11T22:32:36.599Z,13.33
2018-11-11T22:35:06.022Z,13.33
2018-11-11T22:37:34.277Z,12.90
2018-11-11T22:40:03.036Z,12.83
2018-11-11T22:42:31.358Z,12.70
2018-11-11T22:44:59.545Z,13.47
2018-11-11T22:47:27.797Z,12.70
2018-11-11T22:49:56.020Z,13.43
2018-11-11T22:52:24.310Z,12.97
2018-11-11T22:54:52.486Z,13.33
2018-11-11T22:57:20.717Z,13.83
2018-11-11T22:59:48.924Z,13.97
2018-11-11T23:02:17.255Z,13.03
2018-11-11T23:04:45.504Z,13.33
2018-11-11T23:07:13.745Z,14.90
2018-11-11T23:09:41.963Z,13.27
2018-11-11T23:12:10.201Z,14.10
2018-11-11T23:14:38.435Z,13.93
2018-11-11T23:17:06.655Z,13.33
2018-11-11T23:19:34.865Z,13.43
2018-11-11T23:22:03.109Z,13.47
2018-11-11T23:24:31.319Z,14.90
2018-11-11T23:26:59.576Z,14.07
2018-11-11T23:29:27.827Z,14.43
2018-11-11T23:31:56.047Z,14.43
2018-11-11T23:34:24.269Z,14.30
2018-11-11T23:36:52.500Z,14.57
2018-11-11T23:39:20.743Z,14.30
2018-11-11T23:41:48.955Z,15.00
2018-11-11T23:44:17.189Z,15.47
2018-11-11T23:46:45.421Z,14.57
2018-11-11T23:49:14.379Z,15.13
2018-11-11T23:51:42.644Z,15.13
2018-11-11T23:54:10.896Z,14.60
2018-11-11T23:56:39.142Z,14.30
2018-11-11T23:59:07.365Z,14.40
